• Join FlightAware (Why Join?)
  • Login
  • US Flag 
04:17PM EDT


 

Airport Tracker/Info


-or-


 

Live Flight TrackerFlight Track Log ✈ N310VP ✈ 23-Jun-2013 ✈ KPMH - KOSU

Flight Track Log - Related Links

Times and Time Zones

All times are in EDT time to prevent confusion due to time zone crossing. See the N310VP flight status page for this flight to view local times or setup timezone preferences in your user account.

Time Position Orientation Groundspeed Altitude Reporting Facility
EDT Latitude Longitude Course Direction KTS MPH feet Rate Location/Type
03:31PM 38.9808 -82.8556 352° North 162 186 4,000  Level Indianapolis Center
03:32PM 39.0278 -82.8633 353° North 169 194 4,000  Level Indianapolis Center
03:33PM 39.0761 -82.8714 353° North 173 199 4,000  Level Indianapolis Center
03:34PM 39.1242 -82.8806 352° North 174 200 4,000  Level Indianapolis Center
03:35PM 39.1625 -82.8908 348° North 174 200 4,000  Level Indianapolis Center
03:36PM 39.2100 -82.8989 353° North 172 198 4,000  Level Indianapolis Center
03:37PM 39.2708 -82.9100 352° North 172 198 4,000  Level Indianapolis Center
03:38PM 39.3092 -82.9181 351° North 169 194 4,000  Level Indianapolis Center
03:39PM 39.3525 -82.9283 350° North 172 198 4,000  Level Indianapolis Center
03:40PM 39.4000 -82.9364 353° North 174 200 4,000  Level Indianapolis Center
03:41PM 39.4217 -82.9406 352° North 173 199 4,000  Level Indianapolis Center
03:41PM 39.4475 -82.9447 353° North 173 199 4,000  Level Indianapolis Center
03:42PM 39.4697 -82.9494 351° North 172 198 4,000  Level Indianapolis Center
03:42PM 39.4950 -82.9553 350° North 175 201 4,000  Level Indianapolis Center
03:43PM 39.5186 -82.9592 353° North 174 200 4,000  Level Indianapolis Center
03:43PM 39.5447 -82.9639 352° North 176 203 4,000  Level Indianapolis Center
03:44PM 39.5667 -82.9681 352° North 174 200 4,000  Level Indianapolis Center
03:45PM 39.6136 -82.9750 353° North 171 197 4,000  Level Indianapolis Center
03:46PM 39.6606 -82.9550 18° North 173 199 4,000  Level Indianapolis Center
03:47PM 39.7069 -82.9383 15° North 174 200 4,100  Climbing Indianapolis Center
03:48PM 39.7617 -82.9214 13° North 173 199 4,000 -60 Descending Indianapolis Center
03:49PM 39.8081 -82.9056 15° North 171 197 4,000  Level Indianapolis Center
03:50PM 39.8544 -82.8897 15° North 171 197 4,000  Level Indianapolis Center
03:51PM 39.9022 -82.8789 10° North 172 198 4,000  Level Indianapolis Center
03:52PM 39.9489 -82.8633 14° North 175 201 4,000  Level Indianapolis Center
03:53PM 39.9978 -82.8328 26° Northeast 175 201 4,000  Level Indianapolis Center
03:54PM 40.0392 -82.8386 354° North 175 201 4,000  Level Indianapolis Center
03:55PM 40.0889 -82.8611 341° North 183 211 4,000 -360 Level Indianapolis Center
03:56PM 40.0875 -82.9183 268° West 162 186 3,300 -780 Descending Indianapolis Center
03:57PM 40.0825 -82.9744 263° West 156 180 2,400 -660 Descending Indianapolis Center
03:58PM 40.0808 -83.0267 268° West 148 170 2,000 -240 Descending Indianapolis Center
03:59PM 40.0914 -83.0169 35° Northeast 147 169 2,000 -300 Level Indianapolis Center
04:00PM 40.0936 -83.0528 275° West 117 135 1,400 -360 Descending Indianapolis Center
04:01PM 40.0892 -83.0797 258° West 109 125 1,300 -120 Descending Indianapolis Center
04:03PM 40.0798 -83.0732 180° South  Level Estimated